EDSB/FKB METAR and TAF weather

Enter ICAO airport designator
Station Type Date Time Source
EDSB METAR 2020/04/05 18:50 UTC NOAA

EDSB 051850Z 04006KT CAVOK 15/03 Q1018


Station Type Date Time Source
EDSB Decoded METAR 2020/04/05 18:50 UTC NOAA

Karlsruhe, Baden Wurttemberg, Germany (EDSB) 48-46-43N 008-04-47E
Apr 05, 2020 - 02:50 PM EDT / 2020.04.05 1850 UTC
Wind: from the NE (040 degrees) at 7 MPH (6 KT):0
Visibility: greater than 7 mile(s):0
Temperature: 59 F (15 C)
Dew Point: 37 F (3 C)
Relative Humidity: 44%
Pressure (altimeter): 30.06 in. Hg (1018 hPa)
ob: EDSB 051850Z 04006KT CAVOK 15/03 Q1018
cycle: 19

Station Type Date Time Source
EDSB TAF 2020/04/05 18:30 UTC NOAA

TAF EDSB 051700Z 0518/0618 02008KT CAVOK
BECMG 0520/0522 VRB03KT
BECMG 0612/0614 31005KT

Example: see airport list